EST,Max TemperatureF,Mean TemperatureF,Min TemperatureF,Max Dew PointF,MeanDew PointF,Min DewpointF,Max Humidity, Mean Humidity, Min Humidity, Max Sea Level PressureIn, Mean Sea Level PressureIn, Min Sea Level PressureIn, Max VisibilityMiles, Mean VisibilityMiles, Min VisibilityMiles, Max Wind SpeedMPH, Mean Wind SpeedMPH, Max Gust SpeedMPH,PrecipitationIn, CloudCover, Events, WindDirDegrees
2012-11-1,55,47,39,39,37,34,87,68,51,29.57,29.54,29.51,10,10,10,10,3,16,0.00,4,,227
2012-11-2,48,45,41,39,35,30,81,66,53,29.61,29.57,29.54,10,10,10,12,6,17,0.00,6,,276
2012-11-3,53,46,39,34,30,27,70,58,44,29.80,29.71,29.61,10,10,10,16,9,23,0.00,4,,300
2012-11-4,53,43,33,34,29,27,75,62,44,29.92,29.86,29.80,10,10,10,14,8,18,0.00,0,,308
2012-11-5,42,35,28,30,21,16,81,56,42,30.12,29.99,29.92,10,10,10,15,7,21,0.00,4,,340
2012-11-6,39,32,24,21,16,12,74,54,33,30.21,30.16,30.12,10,10,10,13,4,,0.00,0,,12
2012-11-7,37,32,28,30,26,21,93,78,65,30.12,29.89,29.67,10,6,1,29,15,41,0.01,7,,15
2012-11-8,37,34,30,34,30,27,93,83,75,29.74,29.63,29.57,10,7,2,30,23,43,0.01,8,,353
2012-11-9,51,43,35,28,23,18,75,50,26,30.11,29.93,29.74,10,10,10,20,12,24,0.00,1,,312
2012-11-10,53,43,33,34,30,25,81,62,38,30.44,30.28,30.11,10,10,10,8,4,,0.00,1,,254
2012-11-11,62,52,42,46,41,36,82,67,39,30.50,30.46,30.42,10,10,9,10,3,17,0.00,4,,203
2012-11-12,66,57,48,57,51,46,94,78,56,30.48,30.40,30.24,10,8,0,10,6,22,0.00,4,,201
2012-11-13,62,50,37,59,44,28,93,82,70,30.40,30.25,30.14,10,10,5,16,8,24,0.31,8,,305
2012-11-14,44,38,32,28,23,19,70,57,39,30.51,30.45,30.39,10,10,10,17,11,22,0.00,2,,12
2012-11-15,39,34,30,28,26,21,86,72,61,30.42,30.36,30.28,10,10,10,14,9,21,0.00,4,,20
2012-11-16,44,37,30,28,26,21,87,67,46,30.40,30.30,30.26,10,10,10,13,5,16,0.00,0,,2
2012-11-17,46,38,30,30,26,23,93,66,43,30.63,30.55,30.40,10,10,7,12,7,,0.00,0,,17
2012-11-18,48,37,26,32,27,23,93,69,46,30.68,30.64,30.59,10,10,5,12,5,,0.00,0,,31
2012-11-19,48,38,28,36,29,21,87,75,58,30.59,30.43,30.25,10,10,10,12,7,,0.00,2,,22
2012-11-20,48,39,30,36,31,27,93,79,58,30.24,30.16,30.11,10,10,6,12,6,,0.00,0,,29
2012-11-21,51,43,35,37,29,25,75,67,58,30.21,30.17,30.14,10,10,10,13,7,17,0.00,1,,17
2012-11-22,,,,,,,,,,,,,,,,,,,,,,
2012-11-23,,,,,,,,,,,,,,,,,,,,,,
2012-11-24,,,,,,,,,,,,,,,,,,,,,,
2012-11-25,,,,,,,,,,,,,,,,,,,,,,
2012-11-26,,,,,,,,,,,,,,,,,,,,,,
2012-11-27,,,,,,,,,,,,,,,,,,,,,,
2012-11-28,35,32,28,28,25,21,86,78,69,30.16,30.13,30.10,10,10,10,12,7,,0.00,2,,306
2012-11-29,39,34,28,27,22,19,75,63,45,30.26,30.20,30.15,10,10,10,14,8,17,0.00,0,,251
2012-11-30,35,32,30,25,15,3,80,52,30,30.52,30.40,30.22,10,10,10,16,7,,0.00,3,,32